Arrecife, Spain

10:08 PM WET on December 08, 2016 (GMT +0000)
Lanzarote | | Change Station

Elev 69 ft 28.95 °N, 13.60 °W | Updated 8 minutes ago

Clear
Clear
70 °F
Feels Like 70 °F
N
9
Wind Variable Wind from North

Today
High -- | Low -- °F
--% Chance of Precip.
Yesterday
High -- | Low -- °F
Precip. -- in
Pressure 30.18 in
Visibility -9999.0 miles
Clouds
Dew Point 50 °F
Humidity 49%
Rainfall 0.00 in
Snow Depth Not available.
7:35 AM 5:57 PM
Waxing Gibbous, 67% visible
METAR GCRR 082200Z 01008KT CAVOK 21/10 Q1022
Pressure 30.18 in
Visibility -9999.0 miles
Clouds
Dew Point 50 °F
Humidity 49%
Rainfall 0.00 in
Snow Depth Not available.
7:35 AM 5:57 PM
Waxing Gibbous, 67% visible
METAR GCRR 082200Z 01008KT CAVOK 21/10 Q1022

10-Day Weather Forecast

×

Almanac

Astronomy

Dec. 08, 2016 Rise Set
Actual Time
Civil Twilight
Nautical Twilight
Astronomical Twilight
Moon
Length of Visible Light
Length of Day
Tomorrow will be .
, % of the Moon is Illuminated

Today's Extremes

Country Highs Country Lows

Community

WunderPhotos

Upload Photos

1,956,277 photos uploaded!

WunderBlog® & News

Nearby

Air Quality

  Air Quality AQ Index Pollutant
Not available.

Snow Depth

Station Depth Elevation

Earthquake Activity

City Distance Mag. Time & Date
Minimum magnitude displayed is 2.5.

Coastal Water Temperatures

Place Temperature

Stations

Nearby Weather Stations

Station Location Temp. Windchill Dew Point Humidity Wind Precip. Elev Updated Type